createdAt,value
2022-11-05T00:01:07.236Z,953.83607
2022-11-05T00:06:08.920Z,953.83607
2022-11-05T00:11:15.234Z,970.66667
2022-11-05T00:16:20.224Z,824
2022-11-05T00:21:22.291Z,877.33333
2022-11-05T00:26:24.269Z,836.75362
2022-11-05T00:31:26.353Z,799.55556
2022-11-05T00:36:28.392Z,824
2022-11-05T00:41:30.190Z,836.75362
2022-11-05T00:46:32.905Z,877.33333
2022-11-05T00:51:34.674Z,863.40299
2022-11-05T00:56:36.771Z,906.5
2022-11-05T01:01:39.127Z,849.88235
2022-11-05T01:06:41.003Z,877.33333
2022-11-05T01:11:42.950Z,824
2022-11-05T01:16:45.459Z,776.43243
2022-11-05T01:21:47.263Z,765.33333
2022-11-05T01:26:48.852Z,704.49383
2022-11-05T01:31:50.763Z,704.49383
2022-11-05T01:36:53.133Z,704.49383
2022-11-05T01:41:55.187Z,714
2022-11-05T01:46:57.361Z,714
2022-11-05T01:51:59.343Z,714
2022-11-05T01:57:01.027Z,714
2022-11-05T02:02:03.239Z,765.33333
2022-11-05T02:07:05.472Z,754.52632
2022-11-05T02:12:07.483Z,733.74359
2022-11-05T02:17:09.967Z,704.49383
2022-11-05T02:22:11.949Z,695.21951
2022-11-05T02:27:13.746Z,677.33333
2022-11-05T02:32:15.811Z,686.16867
2022-11-05T02:37:17.633Z,677.33333
2022-11-05T02:42:19.497Z,668.70588
2022-11-05T02:47:21.734Z,660.27907
2022-11-05T02:52:23.919Z,652.04598
2022-11-05T02:57:25.351Z,652.04598
2022-11-05T03:02:27.796Z,744
2022-11-05T03:07:29.914Z,686.16867
2022-11-05T03:12:31.932Z,628.44444
2022-11-05T03:17:34.041Z,660.27907
2022-11-05T03:22:35.881Z,636.13483
2022-11-05T03:27:37.855Z,620.92308
2022-11-05T03:32:40.041Z,636.13483
2022-11-05T03:37:41.962Z,644
2022-11-05T03:42:43.840Z,660.27907
2022-11-05T03:47:46.100Z,652.04598
2022-11-05T03:52:47.807Z,644
2022-11-05T03:57:49.683Z,599.31915
2022-11-05T04:02:52.385Z,579.05155
2022-11-05T04:07:54.358Z,628.44444
2022-11-05T04:12:56.387Z,704.49383
2022-11-05T04:17:58.922Z,636.13483
2022-11-05T04:23:01.175Z,560
2022-11-05T04:28:02.960Z,504
2022-11-05T04:33:04.838Z,525.13208
2022-11-05T04:38:07.090Z,530.66667
2022-11-05T04:43:14.694Z,498.95495
2022-11-05T04:48:17.282Z,484.35088
2022-11-05T04:53:19.044Z,514.37037
2022-11-05T04:58:20.583Z,572.57143
2022-11-05T05:03:22.447Z,547.92157
2022-11-05T05:08:24.255Z,566.22222
2022-11-05T05:13:26.252Z,530.66667
2022-11-05T05:18:28.386Z,530.66667
2022-11-05T05:23:30.063Z,542.05825
2022-11-05T05:28:31.610Z,504
2022-11-05T05:33:33.479Z,668.70588
2022-11-05T05:38:35.162Z,566.22222
2022-11-05T05:43:37.176Z,660.27907
2022-11-05T05:48:39.544Z,599.31915
2022-11-05T05:53:41.309Z,714
2022-11-05T05:58:43.382Z,787.83562
2022-11-05T06:03:45.312Z,1024.70175
2022-11-05T06:08:47.140Z,970.66667
2022-11-05T06:13:49.270Z,1006.06897
2022-11-05T06:18:51.627Z,1044
2022-11-05T06:23:53.507Z,1006.06897
2022-11-05T06:28:55.361Z,811.60563
2022-11-05T06:33:57.050Z,953.83607
2022-11-05T06:38:58.981Z,1044
2022-11-05T06:44:00.581Z,1064
2022-11-05T06:49:02.953Z,906.5
2022-11-05T06:54:04.734Z,988.0678
2022-11-05T06:59:06.535Z,988.0678
2022-11-05T07:04:08.769Z,1044
2022-11-05T07:09:10.806Z,1006.06897
2022-11-05T07:14:12.475Z,1064
2022-11-05T07:19:14.406Z,1044
2022-11-05T07:24:15.977Z,1006.06897
2022-11-05T07:29:17.595Z,1084.74074
2022-11-05T07:34:19.737Z,1151.84314
2022-11-05T07:39:21.818Z,1106.26415
2022-11-05T07:44:23.884Z,1201.14286
2022-11-05T07:49:25.883Z,1044
2022-11-05T07:54:27.651Z,1044
2022-11-05T07:59:29.747Z,1128.61538
2022-11-05T08:04:31.996Z,1128.61538
2022-11-05T08:09:34.063Z,1084.74074
2022-11-05T08:14:35.948Z,1044
2022-11-05T08:19:38.454Z,1006.06897
2022-11-05T08:24:40.508Z,1151.84314
2022-11-05T08:29:42.393Z,1106.26415
2022-11-05T08:34:44.608Z,1176
2022-11-05T08:39:46.579Z,1044
2022-11-05T08:44:48.045Z,1201.14286
2022-11-05T08:49:50.448Z,1176
2022-11-05T08:54:52.402Z,1201.14286
2022-11-05T08:59:54.389Z,1151.84314
2022-11-05T09:04:56.289Z,1064
2022-11-05T09:09:58.057Z,1201.14286
2022-11-05T09:14:59.738Z,1176
2022-11-05T09:35:33.034Z,1128.61538
